sensor_id;sensor_type;location;lat;lon;timestamp;P1;durP1;ratioP1;P2;durP2;ratioP2
72422;SDS011;71399;54.146;38.734;2024-03-23T00:54:55;26.63;;;10.00;;
72422;SDS011;71399;54.146;38.734;2024-03-23T00:57:23;26.38;;;10.00;;
72422;SDS011;71399;54.146;38.734;2024-03-23T00:59:50;23.27;;;9.18;;
72422;SDS011;71399;54.146;38.734;2024-03-23T01:02:16;27.90;;;10.38;;
72422;SDS011;71399;54.146;38.734;2024-03-23T01:04:42;23.20;;;10.23;;
72422;SDS011;71399;54.146;38.734;2024-03-23T01:07:08;27.08;;;10.80;;
72422;SDS011;71399;54.146;38.734;2024-03-23T01:09:34;27.50;;;11.15;;
72422;SDS011;71399;54.146;38.734;2024-03-23T01:12:01;27.33;;;10.68;;
72422;SDS011;71399;54.146;38.734;2024-03-23T01:14:27;23.83;;;10.38;;
72422;SDS011;71399;54.146;38.734;2024-03-23T01:16:54;28.33;;;10.63;;
72422;SDS011;71399;54.146;38.734;2024-03-23T01:19:20;29.40;;;9.45;;
72422;SDS011;71399;54.146;38.734;2024-03-23T01:21:46;25.73;;;9.25;;
72422;SDS011;71399;54.146;38.734;2024-03-23T01:24:14;28.35;;;9.73;;
72422;SDS011;71399;54.146;38.734;2024-03-23T01:26:40;25.05;;;10.27;;
72422;SDS011;71399;54.146;38.734;2024-03-23T01:29:07;28.50;;;10.40;;
72422;SDS011;71399;54.146;38.734;2024-03-23T01:31:33;30.33;;;10.15;;
72422;SDS011;71399;54.146;38.734;2024-03-23T01:33:59;26.55;;;10.25;;
72422;SDS011;71399;54.146;38.734;2024-03-23T01:36:26;26.08;;;10.48;;
72422;SDS011;71399;54.146;38.734;2024-03-23T01:38:52;29.70;;;11.00;;
72422;SDS011;71399;54.146;38.734;2024-03-23T01:41:19;32.17;;;11.35;;
72422;SDS011;71399;54.146;38.734;2024-03-23T01:43:46;31.92;;;11.52;;
72422;SDS011;71399;54.146;38.734;2024-03-23T01:46:12;31.60;;;11.38;;
72422;SDS011;71399;54.146;38.734;2024-03-23T01:48:39;33.15;;;12.10;;
72422;SDS011;71399;54.146;38.734;2024-03-23T01:51:05;30.85;;;11.95;;
72422;SDS011;71399;54.146;38.734;2024-03-23T01:53:32;34.95;;;12.70;;
72422;SDS011;71399;54.146;38.734;2024-03-23T01:55:59;35.47;;;12.35;;
72422;SDS011;71399;54.146;38.734;2024-03-23T01:58:25;33.05;;;12.18;;
72422;SDS011;71399;54.146;38.734;2024-03-23T02:00:52;35.40;;;12.00;;
72422;SDS011;71399;54.146;38.734;2024-03-23T02:03:22;36.35;;;12.68;;
72422;SDS011;71399;54.146;38.734;2024-03-23T02:05:52;35.20;;;13.15;;
72422;SDS011;71399;54.146;38.734;2024-03-23T02:08:20;36.05;;;13.63;;
72422;SDS011;71399;54.146;38.734;2024-03-23T02:10:48;37.25;;;13.13;;
72422;SDS011;71399;54.146;38.734;2024-03-23T02:13:16;39.03;;;13.25;;
72422;SDS011;71399;54.146;38.734;2024-03-23T02:15:43;30.80;;;12.60;;
72422;SDS011;71399;54.146;38.734;2024-03-23T02:18:30;32.90;;;12.63;;
72422;SDS011;71399;54.146;38.734;2024-03-23T02:20:56;34.20;;;12.85;;
72422;SDS011;71399;54.146;38.734;2024-03-23T02:23:22;32.10;;;12.68;;
72422;SDS011;71399;54.146;38.734;2024-03-23T02:25:50;41.10;;;13.43;;
72422;SDS011;71399;54.146;38.734;2024-03-23T02:28:16;44.53;;;14.07;;
72422;SDS011;71399;54.146;38.734;2024-03-23T02:30:43;33.70;;;13.85;;
72422;SDS011;71399;54.146;38.734;2024-03-23T02:33:09;37.60;;;15.38;;
72422;SDS011;71399;54.146;38.734;2024-03-23T02:35:35;33.88;;;13.88;;
72422;SDS011;71399;54.146;38.734;2024-03-23T02:38:02;35.67;;;13.73;;
72422;SDS011;71399;54.146;38.734;2024-03-23T02:40:28;33.03;;;13.25;;
72422;SDS011;71399;54.146;38.734;2024-03-23T02:42:55;37.53;;;14.18;;
72422;SDS011;71399;54.146;38.734;2024-03-23T02:45:21;38.45;;;14.73;;
72422;SDS011;71399;54.146;38.734;2024-03-23T02:47:48;43.92;;;15.60;;
72422;SDS011;71399;54.146;38.734;2024-03-23T02:50:18;39.28;;;14.68;;
72422;SDS011;71399;54.146;38.734;2024-03-23T02:52:45;34.05;;;13.32;;
72422;SDS011;71399;54.146;38.734;2024-03-23T02:55:12;38.58;;;13.63;;
72422;SDS011;71399;54.146;38.734;2024-03-23T02:57:39;33.72;;;13.90;;
72422;SDS011;71399;54.146;38.734;2024-03-23T03:00:06;34.75;;;14.20;;
72422;SDS011;71399;54.146;38.734;2024-03-23T03:02:33;37.40;;;15.43;;
72422;SDS011;71399;54.146;38.734;2024-03-23T03:05:00;36.15;;;14.68;;
72422;SDS011;71399;54.146;38.734;2024-03-23T03:07:26;35.60;;;13.90;;
72422;SDS011;71399;54.146;38.734;2024-03-23T03:09:52;40.20;;;13.73;;
72422;SDS011;71399;54.146;38.734;2024-03-23T03:12:19;35.88;;;15.45;;
72422;SDS011;71399;54.146;38.734;2024-03-23T03:14:45;37.92;;;14.63;;
72422;SDS011;71399;54.146;38.734;2024-03-23T03:17:11;33.08;;;14.73;;
72422;SDS011;71399;54.146;38.734;2024-03-23T03:19:38;36.03;;;13.45;;
72422;SDS011;71399;54.146;38.734;2024-03-23T03:22:04;37.70;;;13.88;;
72422;SDS011;71399;54.146;38.734;2024-03-23T03:24:30;34.92;;;14.85;;
72422;SDS011;71399;54.146;38.734;2024-03-23T03:26:56;42.55;;;14.85;;
72422;SDS011;71399;54.146;38.734;2024-03-23T03:29:26;41.40;;;14.43;;
72422;SDS011;71399;54.146;38.734;2024-03-23T03:31:59;37.65;;;13.63;;
72422;SDS011;71399;54.146;38.734;2024-03-23T03:34:25;34.78;;;13.35;;
72422;SDS011;71399;54.146;38.734;2024-03-23T03:36:52;38.90;;;14.35;;
72422;SDS011;71399;54.146;38.734;2024-03-23T03:39:18;41.13;;;14.75;;
72422;SDS011;71399;54.146;38.734;2024-03-23T03:41:44;36.50;;;14.88;;
72422;SDS011;71399;54.146;38.734;2024-03-23T03:44:11;31.65;;;12.93;;
72422;SDS011;71399;54.146;38.734;2024-03-23T03:46:37;32.30;;;13.65;;
72422;SDS011;71399;54.146;38.734;2024-03-23T03:49:04;39.65;;;15.30;;
72422;SDS011;71399;54.146;38.734;2024-03-23T03:51:30;35.45;;;14.60;;
72422;SDS011;71399;54.146;38.734;2024-03-23T03:53:57;35.70;;;13.20;;
72422;SDS011;71399;54.146;38.734;2024-03-23T03:56:23;36.97;;;14.40;;
72422;SDS011;71399;54.146;38.734;2024-03-23T03:58:49;35.97;;;13.20;;
72422;SDS011;71399;54.146;38.734;2024-03-23T04:01:15;39.25;;;14.23;;
72422;SDS011;71399;54.146;38.734;2024-03-23T04:03:43;32.53;;;12.75;;
72422;SDS011;71399;54.146;38.734;2024-03-23T04:06:10;35.00;;;14.00;;
72422;SDS011;71399;54.146;38.734;2024-03-23T04:08:36;37.63;;;13.30;;
72422;SDS011;71399;54.146;38.734;2024-03-23T04:11:02;35.88;;;13.38;;
72422;SDS011;71399;54.146;38.734;2024-03-23T04:13:28;34.90;;;13.50;;
72422;SDS011;71399;54.146;38.734;2024-03-23T04:15:55;32.70;;;12.85;;
72422;SDS011;71399;54.146;38.734;2024-03-23T04:18:22;35.10;;;12.75;;
72422;SDS011;71399;54.146;38.734;2024-03-23T04:20:49;28.85;;;12.45;;
72422;SDS011;71399;54.146;38.734;2024-03-23T04:23:15;35.63;;;13.52;;
72422;SDS011;71399;54.146;38.734;2024-03-23T04:25:42;33.13;;;13.40;;
72422;SDS011;71399;54.146;38.734;2024-03-23T04:28:08;33.67;;;13.02;;
72422;SDS011;71399;54.146;38.734;2024-03-23T04:30:34;35.67;;;13.45;;
72422;SDS011;71399;54.146;38.734;2024-03-23T04:33:01;34.22;;;14.15;;
72422;SDS011;71399;54.146;38.734;2024-03-23T04:35:27;28.67;;;12.45;;
72422;SDS011;71399;54.146;38.734;2024-03-23T04:37:53;36.45;;;13.68;;
72422;SDS011;71399;54.146;38.734;2024-03-23T04:40:21;30.98;;;12.45;;
72422;SDS011;71399;54.146;38.734;2024-03-23T04:42:48;27.58;;;11.98;;
72422;SDS011;71399;54.146;38.734;2024-03-23T04:45:14;35.22;;;13.32;;
72422;SDS011;71399;54.146;38.734;2024-03-23T04:47:41;34.25;;;12.65;;
72422;SDS011;71399;54.146;38.734;2024-03-23T04:50:07;31.77;;;13.40;;
72422;SDS011;71399;54.146;38.734;2024-03-23T04:52:36;33.72;;;13.90;;
72422;SDS011;71399;54.146;38.734;2024-03-23T04:55:02;28.33;;;13.00;;
72422;SDS011;71399;54.146;38.734;2024-03-23T04:57:30;32.53;;;13.23;;
72422;SDS011;71399;54.146;38.734;2024-03-23T04:59:56;29.88;;;12.75;;
72422;SDS011;71399;54.146;38.734;2024-03-23T05:02:23;28.58;;;12.13;;
72422;SDS011;71399;54.146;38.734;2024-03-23T05:04:51;27.48;;;11.63;;
72422;SDS011;71399;54.146;38.734;2024-03-23T05:07:17;29.45;;;11.68;;
72422;SDS011;71399;54.146;38.734;2024-03-23T05:09:43;31.13;;;13.07;;
72422;SDS011;71399;54.146;38.734;2024-03-23T05:12:10;34.50;;;13.60;;
72422;SDS011;71399;54.146;38.734;2024-03-23T05:14:36;30.38;;;13.27;;
72422;SDS011;71399;54.146;38.734;2024-03-23T05:17:02;29.83;;;12.73;;
72422;SDS011;71399;54.146;38.734;2024-03-23T05:19:30;32.58;;;13.07;;
72422;SDS011;71399;54.146;38.734;2024-03-23T05:21:56;31.92;;;13.50;;
72422;SDS011;71399;54.146;38.734;2024-03-23T05:24:22;31.65;;;13.48;;
72422;SDS011;71399;54.146;38.734;2024-03-23T05:26:48;31.75;;;13.15;;
72422;SDS011;71399;54.146;38.734;2024-03-23T05:29:14;32.05;;;12.98;;
72422;SDS011;71399;54.146;38.734;2024-03-23T05:31:43;27.08;;;12.05;;
72422;SDS011;71399;54.146;38.734;2024-03-23T05:34:09;28.92;;;12.52;;
72422;SDS011;71399;54.146;38.734;2024-03-23T05:36:35;31.88;;;12.35;;
72422;SDS011;71399;54.146;38.734;2024-03-23T05:39:03;31.45;;;13.73;;
72422;SDS011;71399;54.146;38.734;2024-03-23T05:41:30;33.05;;;11.77;;
72422;SDS011;71399;54.146;38.734;2024-03-23T05:43:57;30.35;;;13.23;;
72422;SDS011;71399;54.146;38.734;2024-03-23T05:46:23;29.05;;;12.73;;
72422;SDS011;71399;54.146;38.734;2024-03-23T05:48:50;29.80;;;12.65;;
72422;SDS011;71399;54.146;38.734;2024-03-23T05:51:26;28.92;;;12.45;;
72422;SDS011;71399;54.146;38.734;2024-03-23T05:53:53;32.17;;;13.25;;
72422;SDS011;71399;54.146;38.734;2024-03-23T05:56:19;33.75;;;12.60;;
72422;SDS011;71399;54.146;38.734;2024-03-23T05:58:46;34.33;;;13.93;;
72422;SDS011;71399;54.146;38.734;2024-03-23T06:01:12;33.88;;;12.98;;
72422;SDS011;71399;54.146;38.734;2024-03-23T06:03:38;27.17;;;12.02;;
72422;SDS011;71399;54.146;38.734;2024-03-23T06:06:05;33.03;;;12.95;;
72422;SDS011;71399;54.146;38.734;2024-03-23T06:08:36;32.58;;;12.07;;
72422;SDS011;71399;54.146;38.734;2024-03-23T06:11:02;34.85;;;12.68;;
72422;SDS011;71399;54.146;38.734;2024-03-23T06:13:28;27.58;;;12.70;;
72422;SDS011;71399;54.146;38.734;2024-03-23T06:15:56;39.92;;;12.75;;
72422;SDS011;71399;54.146;38.734;2024-03-23T06:18:22;29.00;;;11.60;;
72422;SDS011;71399;54.146;38.734;2024-03-23T06:20:49;27.35;;;11.43;;
72422;SDS011;71399;54.146;38.734;2024-03-23T06:23:15;27.05;;;12.10;;
72422;SDS011;71399;54.146;38.734;2024-03-23T06:25:42;27.48;;;12.25;;
72422;SDS011;71399;54.146;38.734;2024-03-23T06:28:09;28.70;;;12.45;;
72422;SDS011;71399;54.146;38.734;2024-03-23T06:30:36;33.95;;;12.95;;
72422;SDS011;71399;54.146;38.734;2024-03-23T06:33:02;25.83;;;11.82;;
72422;SDS011;71399;54.146;38.734;2024-03-23T06:35:28;31.58;;;11.80;;
72422;SDS011;71399;54.146;38.734;2024-03-23T06:37:55;24.65;;;11.30;;
72422;SDS011;71399;54.146;38.734;2024-03-23T06:40:21;26.48;;;11.60;;
72422;SDS011;71399;54.146;38.734;2024-03-23T06:42:47;31.00;;;14.55;;
72422;SDS011;71399;54.146;38.734;2024-03-23T06:45:13;31.15;;;15.70;;
72422;SDS011;71399;54.146;38.734;2024-03-23T06:47:40;45.22;;;17.60;;
72422;SDS011;71399;54.146;38.734;2024-03-23T06:50:06;29.17;;;14.52;;
72422;SDS011;71399;54.146;38.734;2024-03-23T06:52:33;29.98;;;13.40;;
72422;SDS011;71399;54.146;38.734;2024-03-23T06:54:59;26.30;;;13.73;;
72422;SDS011;71399;54.146;38.734;2024-03-23T06:57:25;31.25;;;14.55;;
72422;SDS011;71399;54.146;38.734;2024-03-23T06:59:52;31.50;;;14.73;;
72422;SDS011;71399;54.146;38.734;2024-03-23T07:02:18;28.70;;;13.80;;
72422;SDS011;71399;54.146;38.734;2024-03-23T07:04:45;31.02;;;14.75;;
72422;SDS011;71399;54.146;38.734;2024-03-23T07:07:11;27.08;;;13.93;;
72422;SDS011;71399;54.146;38.734;2024-03-23T07:09:37;30.40;;;13.85;;
72422;SDS011;71399;54.146;38.734;2024-03-23T07:12:04;29.55;;;12.70;;
72422;SDS011;71399;54.146;38.734;2024-03-23T07:14:31;27.38;;;13.18;;
72422;SDS011;71399;54.146;38.734;2024-03-23T07:16:58;24.92;;;12.25;;
72422;SDS011;71399;54.146;38.734;2024-03-23T07:19:24;27.73;;;12.63;;
72422;SDS011;71399;54.146;38.734;2024-03-23T07:21:51;26.98;;;12.25;;
72422;SDS011;71399;54.146;38.734;2024-03-23T07:24:18;25.23;;;11.73;;
72422;SDS011;71399;54.146;38.734;2024-03-23T07:26:44;28.27;;;12.85;;
72422;SDS011;71399;54.146;38.734;2024-03-23T07:29:11;30.23;;;13.00;;
72422;SDS011;71399;54.146;38.734;2024-03-23T07:31:37;24.80;;;12.45;;
72422;SDS011;71399;54.146;38.734;2024-03-23T07:34:04;27.83;;;11.32;;
72422;SDS011;71399;54.146;38.734;2024-03-23T07:36:32;25.20;;;12.43;;
72422;SDS011;71399;54.146;38.734;2024-03-23T07:38:58;28.73;;;12.20;;
72422;SDS011;71399;54.146;38.734;2024-03-23T07:41:25;28.20;;;12.88;;
72422;SDS011;71399;54.146;38.734;2024-03-23T07:43:53;25.67;;;11.35;;
72422;SDS011;71399;54.146;38.734;2024-03-23T07:46:20;25.50;;;13.10;;
72422;SDS011;71399;54.146;38.734;2024-03-23T07:48:46;28.55;;;13.15;;
72422;SDS011;71399;54.146;38.734;2024-03-23T07:51:20;28.48;;;12.88;;
72422;SDS011;71399;54.146;38.734;2024-03-23T07:53:48;26.08;;;11.88;;
72422;SDS011;71399;54.146;38.734;2024-03-23T07:56:14;26.73;;;11.57;;
72422;SDS011;71399;54.146;38.734;2024-03-23T07:58:41;22.48;;;10.90;;
72422;SDS011;71399;54.146;38.734;2024-03-23T08:01:12;23.27;;;11.38;;
72422;SDS011;71399;54.146;38.734;2024-03-23T08:03:45;25.67;;;11.68;;
72422;SDS011;71399;54.146;38.734;2024-03-23T08:06:13;21.63;;;10.80;;
72422;SDS011;71399;54.146;38.734;2024-03-23T08:08:41;25.58;;;12.30;;
72422;SDS011;71399;54.146;38.734;2024-03-23T08:11:11;24.25;;;11.30;;
72422;SDS011;71399;54.146;38.734;2024-03-23T08:13:38;26.05;;;12.68;;
72422;SDS011;71399;54.146;38.734;2024-03-23T08:16:06;26.73;;;12.18;;
72422;SDS011;71399;54.146;38.734;2024-03-23T08:18:34;26.48;;;12.15;;
72422;SDS011;71399;54.146;38.734;2024-03-23T08:21:05;22.67;;;11.32;;
72422;SDS011;71399;54.146;38.734;2024-03-23T08:23:32;24.30;;;12.35;;
72422;SDS011;71399;54.146;38.734;2024-03-23T08:26:02;25.48;;;12.43;;
72422;SDS011;71399;54.146;38.734;2024-03-23T08:28:29;25.55;;;11.73;;
72422;SDS011;71399;54.146;38.734;2024-03-23T08:30:56;23.75;;;11.80;;
72422;SDS011;71399;54.146;38.734;2024-03-23T08:33:26;24.95;;;11.73;;
72422;SDS011;71399;54.146;38.734;2024-03-23T08:35:56;24.15;;;10.60;;
72422;SDS011;71399;54.146;38.734;2024-03-23T08:38:29;28.27;;;12.15;;
72422;SDS011;71399;54.146;38.734;2024-03-23T08:41:02;25.17;;;11.32;;
72422;SDS011;71399;54.146;38.734;2024-03-23T08:43:31;27.27;;;11.75;;
72422;SDS011;71399;54.146;38.734;2024-03-23T08:46:05;25.92;;;11.00;;
72422;SDS011;71399;54.146;38.734;2024-03-23T08:48:39;25.35;;;11.32;;
72422;SDS011;71399;54.146;38.734;2024-03-23T08:51:12;24.77;;;11.90;;
72422;SDS011;71399;54.146;38.734;2024-03-23T08:53:39;26.33;;;11.40;;
72422;SDS011;71399;54.146;38.734;2024-03-23T08:56:06;25.75;;;11.45;;
72422;SDS011;71399;54.146;38.734;2024-03-23T08:58:33;24.35;;;11.73;;
72422;SDS011;71399;54.146;38.734;2024-03-23T09:01:05;28.58;;;12.15;;
72422;SDS011;71399;54.146;38.734;2024-03-23T09:03:33;27.98;;;12.80;;
72422;SDS011;71399;54.146;38.734;2024-03-23T09:06:01;26.73;;;11.40;;
72422;SDS011;71399;54.146;38.734;2024-03-23T09:08:32;25.83;;;11.85;;
72422;SDS011;71399;54.146;38.734;2024-03-23T09:11:03;23.92;;;10.73;;
72422;SDS011;71399;54.146;38.734;2024-03-23T09:13:35;22.30;;;11.27;;
72422;SDS011;71399;54.146;38.734;2024-03-23T09:16:03;24.83;;;11.93;;
72422;SDS011;71399;54.146;38.734;2024-03-23T09:18:32;26.63;;;13.18;;
72422;SDS011;71399;54.146;38.734;2024-03-23T09:20:59;25.50;;;12.63;;
72422;SDS011;71399;54.146;38.734;2024-03-23T09:23:25;25.48;;;12.82;;
72422;SDS011;71399;54.146;38.734;2024-03-23T09:25:52;27.23;;;11.25;;
72422;SDS011;71399;54.146;38.734;2024-03-23T09:28:18;29.70;;;12.85;;
72422;SDS011;71399;54.146;38.734;2024-03-23T09:30:44;25.98;;;12.40;;
72422;SDS011;71399;54.146;38.734;2024-03-23T09:33:11;25.65;;;12.15;;
72422;SDS011;71399;54.146;38.734;2024-03-23T09:35:39;28.63;;;12.05;;
72422;SDS011;71399;54.146;38.734;2024-03-23T09:38:06;20.80;;;10.40;;
72422;SDS011;71399;54.146;38.734;2024-03-23T09:40:39;25.65;;;11.93;;
72422;SDS011;71399;54.146;38.734;2024-03-23T09:43:08;22.15;;;11.73;;
72422;SDS011;71399;54.146;38.734;2024-03-23T09:45:36;28.10;;;12.68;;
72422;SDS011;71399;54.146;38.734;2024-03-23T09:48:08;24.63;;;10.68;;
72422;SDS011;71399;54.146;38.734;2024-03-23T09:50:37;25.50;;;11.48;;
72422;SDS011;71399;54.146;38.734;2024-03-23T09:53:05;24.65;;;12.68;;
72422;SDS011;71399;54.146;38.734;2024-03-23T09:55:33;27.38;;;12.65;;
72422;SDS011;71399;54.146;38.734;2024-03-23T09:58:03;28.20;;;12.43;;
72422;SDS011;71399;54.146;38.734;2024-03-23T10:00:31;24.35;;;12.35;;
72422;SDS011;71399;54.146;38.734;2024-03-23T10:02:58;24.92;;;11.75;;
72422;SDS011;71399;54.146;38.734;2024-03-23T10:05:27;24.63;;;11.55;;
72422;SDS011;71399;54.146;38.734;2024-03-23T10:07:57;29.42;;;12.32;;
72422;SDS011;71399;54.146;38.734;2024-03-23T10:10:26;25.90;;;11.93;;
72422;SDS011;71399;54.146;38.734;2024-03-23T10:12:53;26.00;;;12.65;;
72422;SDS011;71399;54.146;38.734;2024-03-23T10:17:49;27.67;;;11.45;;
72422;SDS011;71399;54.146;38.734;2024-03-23T10:20:20;22.85;;;11.45;;
72422;SDS011;71399;54.146;38.734;2024-03-23T10:22:50;28.80;;;12.55;;
72422;SDS011;71399;54.146;38.734;2024-03-23T10:25:22;27.63;;;12.27;;
72422;SDS011;71399;54.146;38.734;2024-03-23T10:27:58;28.23;;;12.35;;
72422;SDS011;71399;54.146;38.734;2024-03-23T10:30:26;27.73;;;11.68;;
72422;SDS011;71399;54.146;38.734;2024-03-23T10:33:12;31.63;;;12.25;;
72422;SDS011;71399;54.146;38.734;2024-03-23T10:35:40;22.77;;;11.60;;
72422;SDS011;71399;54.146;38.734;2024-03-23T10:38:07;26.27;;;11.80;;
72422;SDS011;71399;54.146;38.734;2024-03-23T10:40:34;27.67;;;11.50;;
72422;SDS011;71399;54.146;38.734;2024-03-23T10:43:02;27.33;;;12.95;;
72422;SDS011;71399;54.146;38.734;2024-03-23T10:45:30;21.63;;;10.73;;
72422;SDS011;71399;54.146;38.734;2024-03-23T10:47:57;22.83;;;11.20;;
72422;SDS011;71399;54.146;38.734;2024-03-23T10:50:23;30.15;;;12.82;;
72422;SDS011;71399;54.146;38.734;2024-03-23T10:52:50;30.45;;;12.55;;
72422;SDS011;71399;54.146;38.734;2024-03-23T10:55:19;24.75;;;12.32;;
72422;SDS011;71399;54.146;38.734;2024-03-23T10:57:52;27.42;;;12.73;;
72422;SDS011;71399;54.146;38.734;2024-03-23T11:00:21;25.90;;;11.65;;
72422;SDS011;71399;54.146;38.734;2024-03-23T11:02:49;26.23;;;11.93;;
72422;SDS011;71399;54.146;38.734;2024-03-23T11:05:48;28.20;;;12.27;;
72422;SDS011;71399;54.146;38.734;2024-03-23T11:08:21;26.45;;;11.70;;
72422;SDS011;71399;54.146;38.734;2024-03-23T11:11:11;25.05;;;10.85;;
72422;SDS011;71399;54.146;38.734;2024-03-23T11:13:49;28.92;;;11.30;;
72422;SDS011;71399;54.146;38.734;2024-03-23T11:16:37;22.40;;;11.40;;
72422;SDS011;71399;54.146;38.734;2024-03-23T11:22:00;25.85;;;12.20;;
72422;SDS011;71399;54.146;38.734;2024-03-23T11:24:27;23.27;;;11.88;;
72422;SDS011;71399;54.146;38.734;2024-03-23T11:26:53;27.90;;;13.10;;
72422;SDS011;71399;54.146;38.734;2024-03-23T11:29:20;22.88;;;11.43;;
72422;SDS011;71399;54.146;38.734;2024-03-23T11:31:47;30.02;;;12.55;;
72422;SDS011;71399;54.146;38.734;2024-03-23T11:34:20;26.80;;;11.65;;
72422;SDS011;71399;54.146;38.734;2024-03-23T11:36:47;24.92;;;11.00;;
72422;SDS011;71399;54.146;38.734;2024-03-23T11:39:15;23.17;;;11.27;;
72422;SDS011;71399;54.146;38.734;2024-03-23T11:44:16;23.95;;;11.90;;
72422;SDS011;71399;54.146;38.734;2024-03-23T11:46:46;23.65;;;11.98;;
72422;SDS011;71399;54.146;38.734;2024-03-23T11:49:22;25.48;;;11.52;;
72422;SDS011;71399;54.146;38.734;2024-03-23T11:51:54;24.83;;;11.57;;
72422;SDS011;71399;54.146;38.734;2024-03-23T11:56:56;24.17;;;11.38;;
72422;SDS011;71399;54.146;38.734;2024-03-23T11:59:34;22.02;;;10.95;;
72422;SDS011;71399;54.146;38.734;2024-03-23T12:02:00;23.88;;;12.02;;
72422;SDS011;71399;54.146;38.734;2024-03-23T12:04:31;30.70;;;12.52;;
72422;SDS011;71399;54.146;38.734;2024-03-23T12:07:14;23.90;;;11.93;;
72422;SDS011;71399;54.146;38.734;2024-03-23T12:09:41;27.77;;;12.25;;
72422;SDS011;71399;54.146;38.734;2024-03-23T12:12:08;23.67;;;12.05;;
72422;SDS011;71399;54.146;38.734;2024-03-23T12:14:36;26.05;;;12.30;;
72422;SDS011;71399;54.146;38.734;2024-03-23T12:17:12;20.33;;;11.25;;
72422;SDS011;71399;54.146;38.734;2024-03-23T12:19:39;29.05;;;12.80;;
72422;SDS011;71399;54.146;38.734;2024-03-23T12:22:07;26.33;;;12.68;;
72422;SDS011;71399;54.146;38.734;2024-03-23T12:24:35;30.85;;;13.10;;
72422;SDS011;71399;54.146;38.734;2024-03-23T12:27:02;26.65;;;12.75;;
72422;SDS011;71399;54.146;38.734;2024-03-23T12:29:31;24.75;;;12.27;;
72422;SDS011;71399;54.146;38.734;2024-03-23T12:32:01;27.30;;;13.20;;
72422;SDS011;71399;54.146;38.734;2024-03-23T12:34:28;28.92;;;12.40;;
72422;SDS011;71399;54.146;38.734;2024-03-23T12:36:58;27.60;;;12.45;;
72422;SDS011;71399;54.146;38.734;2024-03-23T12:39:24;28.77;;;12.93;;
72422;SDS011;71399;54.146;38.734;2024-03-23T12:41:50;26.60;;;12.13;;
72422;SDS011;71399;54.146;38.734;2024-03-23T12:44:18;26.90;;;11.75;;
72422;SDS011;71399;54.146;38.734;2024-03-23T12:46:45;28.50;;;12.40;;
72422;SDS011;71399;54.146;38.734;2024-03-23T12:49:11;30.27;;;13.18;;
72422;SDS011;71399;54.146;38.734;2024-03-23T12:51:37;26.55;;;12.23;;
72422;SDS011;71399;54.146;38.734;2024-03-23T12:54:04;29.30;;;13.52;;
72422;SDS011;71399;54.146;38.734;2024-03-23T12:56:31;27.75;;;12.73;;
72422;SDS011;71399;54.146;38.734;2024-03-23T12:58:57;30.15;;;13.75;;
72422;SDS011;71399;54.146;38.734;2024-03-23T13:01:23;26.83;;;12.13;;
72422;SDS011;71399;54.146;38.734;2024-03-23T13:03:49;29.85;;;13.00;;
72422;SDS011;71399;54.146;38.734;2024-03-23T13:06:19;27.20;;;12.95;;
72422;SDS011;71399;54.146;38.734;2024-03-23T13:08:45;28.38;;;13.30;;
72422;SDS011;71399;54.146;38.734;2024-03-23T13:11:12;26.33;;;12.95;;
72422;SDS011;71399;54.146;38.734;2024-03-23T13:13:39;28.52;;;12.75;;
72422;SDS011;71399;54.146;38.734;2024-03-23T13:16:07;31.98;;;13.73;;
72422;SDS011;71399;54.146;38.734;2024-03-23T13:18:34;31.60;;;12.85;;
72422;SDS011;71399;54.146;38.734;2024-03-23T13:21:01;33.88;;;14.10;;
72422;SDS011;71399;54.146;38.734;2024-03-23T13:23:28;30.58;;;13.38;;
72422;SDS011;71399;54.146;38.734;2024-03-23T13:25:55;29.48;;;13.52;;
72422;SDS011;71399;54.146;38.734;2024-03-23T13:28:22;33.03;;;14.27;;
72422;SDS011;71399;54.146;38.734;2024-03-23T13:30:51;29.50;;;13.60;;
72422;SDS011;71399;54.146;38.734;2024-03-23T13:33:18;28.10;;;14.43;;
72422;SDS011;71399;54.146;38.734;2024-03-23T13:35:54;36.63;;;13.45;;
72422;SDS011;71399;54.146;38.734;2024-03-23T13:38:22;30.95;;;13.30;;
72422;SDS011;71399;54.146;38.734;2024-03-23T13:40:53;30.85;;;14.00;;
72422;SDS011;71399;54.146;38.734;2024-03-23T13:43:19;30.63;;;13.93;;
72422;SDS011;71399;54.146;38.734;2024-03-23T13:45:47;29.83;;;14.73;;
72422;SDS011;71399;54.146;38.734;2024-03-23T13:48:14;33.30;;;14.07;;
72422;SDS011;71399;54.146;38.734;2024-03-23T13:50:45;27.40;;;13.15;;
72422;SDS011;71399;54.146;38.734;2024-03-23T13:53:14;26.27;;;11.73;;
72422;SDS011;71399;54.146;38.734;2024-03-23T13:55:46;27.38;;;12.70;;
72422;SDS011;71399;54.146;38.734;2024-03-23T13:58:16;29.55;;;12.65;;
72422;SDS011;71399;54.146;38.734;2024-03-23T14:00:42;30.95;;;13.55;;
72422;SDS011;71399;54.146;38.734;2024-03-23T14:03:09;30.15;;;13.65;;
72422;SDS011;71399;54.146;38.734;2024-03-23T14:05:39;36.88;;;15.55;;
72422;SDS011;71399;54.146;38.734;2024-03-23T14:08:09;30.40;;;14.07;;
72422;SDS011;71399;54.146;38.734;2024-03-23T14:10:39;32.38;;;14.48;;
72422;SDS011;71399;54.146;38.734;2024-03-23T14:13:06;32.75;;;13.15;;
72422;SDS011;71399;54.146;38.734;2024-03-23T14:15:33;32.55;;;14.10;;
72422;SDS011;71399;54.146;38.734;2024-03-23T14:17:59;31.88;;;14.98;;
72422;SDS011;71399;54.146;38.734;2024-03-23T14:20:26;30.55;;;14.43;;
72422;SDS011;71399;54.146;38.734;2024-03-23T14:22:52;33.85;;;14.20;;
72422;SDS011;71399;54.146;38.734;2024-03-23T14:25:19;28.55;;;12.45;;
72422;SDS011;71399;54.146;38.734;2024-03-23T14:27:47;32.20;;;13.57;;
72422;SDS011;71399;54.146;38.734;2024-03-23T14:30:14;28.70;;;13.50;;
72422;SDS011;71399;54.146;38.734;2024-03-23T14:32:40;32.58;;;15.02;;
72422;SDS011;71399;54.146;38.734;2024-03-23T14:35:07;31.75;;;13.80;;
72422;SDS011;71399;54.146;38.734;2024-03-23T14:37:36;30.73;;;13.80;;
72422;SDS011;71399;54.146;38.734;2024-03-23T14:40:04;26.95;;;13.75;;
72422;SDS011;71399;54.146;38.734;2024-03-23T14:42:31;29.88;;;14.10;;
72422;SDS011;71399;54.146;38.734;2024-03-23T14:44:58;27.90;;;13.05;;
72422;SDS011;71399;54.146;38.734;2024-03-23T14:47:24;34.38;;;14.43;;
72422;SDS011;71399;54.146;38.734;2024-03-23T14:49:51;37.13;;;14.80;;
72422;SDS011;71399;54.146;38.734;2024-03-23T14:52:18;31.65;;;14.23;;
72422;SDS011;71399;54.146;38.734;2024-03-23T14:54:45;33.08;;;14.57;;
72422;SDS011;71399;54.146;38.734;2024-03-23T14:57:12;32.08;;;13.73;;
72422;SDS011;71399;54.146;38.734;2024-03-23T14:59:38;33.33;;;14.43;;
72422;SDS011;71399;54.146;38.734;2024-03-23T15:02:09;33.17;;;14.13;;
72422;SDS011;71399;54.146;38.734;2024-03-23T15:04:35;30.63;;;12.93;;
72422;SDS011;71399;54.146;38.734;2024-03-23T15:07:02;31.30;;;14.10;;
72422;SDS011;71399;54.146;38.734;2024-03-23T15:09:28;30.88;;;13.00;;
72422;SDS011;71399;54.146;38.734;2024-03-23T15:11:55;33.03;;;14.10;;
72422;SDS011;71399;54.146;38.734;2024-03-23T15:14:21;31.73;;;13.68;;
72422;SDS011;71399;54.146;38.734;2024-03-23T15:16:49;31.38;;;13.10;;